sensor_id;sensor_type;location;lat;lon;timestamp;temperature;humidity
5560;DHT22;2803;47.916;8.074;2023-03-14T00:00:08;12.10;99.90
5560;DHT22;2803;47.916;8.074;2023-03-14T00:02:37;12.00;99.90
5560;DHT22;2803;47.916;8.074;2023-03-14T00:05:04;11.90;99.90
5560;DHT22;2803;47.916;8.074;2023-03-14T00:07:33;11.70;99.90
5560;DHT22;2803;47.916;8.074;2023-03-14T00:10:01;11.60;99.90
5560;DHT22;2803;47.916;8.074;2023-03-14T00:12:29;11.10;99.90
5560;DHT22;2803;47.916;8.074;2023-03-14T00:14:56;11.20;99.90
5560;DHT22;2803;47.916;8.074;2023-03-14T00:17:23;11.10;99.90
5560;DHT22;2803;47.916;8.074;2023-03-14T00:19:50;11.60;99.90
5560;DHT22;2803;47.916;8.074;2023-03-14T00:22:19;11.90;99.90
5560;DHT22;2803;47.916;8.074;2023-03-14T00:24:45;11.70;99.90
5560;DHT22;2803;47.916;8.074;2023-03-14T00:27:12;11.50;99.90
5560;DHT22;2803;47.916;8.074;2023-03-14T00:29:39;11.70;99.90
5560;DHT22;2803;47.916;8.074;2023-03-14T00:32:05;11.80;99.90
5560;DHT22;2803;47.916;8.074;2023-03-14T00:34:32;11.70;99.90
5560;DHT22;2803;47.916;8.074;2023-03-14T00:37:00;11.80;99.90
5560;DHT22;2803;47.916;8.074;2023-03-14T00:39:27;12.00;99.90
5560;DHT22;2803;47.916;8.074;2023-03-14T00:41:54;11.90;99.90
5560;DHT22;2803;47.916;8.074;2023-03-14T00:44:20;12.20;99.90
5560;DHT22;2803;47.916;8.074;2023-03-14T00:46:47;11.80;99.90
5560;DHT22;2803;47.916;8.074;2023-03-14T00:49:13;11.80;99.90
5560;DHT22;2803;47.916;8.074;2023-03-14T00:51:40;11.70;99.90
5560;DHT22;2803;47.916;8.074;2023-03-14T00:54:08;11.80;99.90
5560;DHT22;2803;47.916;8.074;2023-03-14T00:56:34;12.10;99.90
5560;DHT22;2803;47.916;8.074;2023-03-14T00:59:01;12.10;99.90
5560;DHT22;2803;47.916;8.074;2023-03-14T01:01:27;11.70;99.90
5560;DHT22;2803;47.916;8.074;2023-03-14T01:03:55;11.80;99.90
5560;DHT22;2803;47.916;8.074;2023-03-14T01:06:23;11.80;99.90
5560;DHT22;2803;47.916;8.074;2023-03-14T01:08:51;12.10;99.90
5560;DHT22;2803;47.916;8.074;2023-03-14T01:11:20;12.10;99.90
5560;DHT22;2803;47.916;8.074;2023-03-14T01:13:48;12.00;99.90
5560;DHT22;2803;47.916;8.074;2023-03-14T01:16:15;11.80;99.90
5560;DHT22;2803;47.916;8.074;2023-03-14T01:18:43;11.60;99.90
5560;DHT22;2803;47.916;8.074;2023-03-14T01:21:12;11.20;99.90
5560;DHT22;2803;47.916;8.074;2023-03-14T01:23:39;11.10;99.90
5560;DHT22;2803;47.916;8.074;2023-03-14T01:26:08;11.30;99.90
5560;DHT22;2803;47.916;8.074;2023-03-14T01:28:37;11.70;99.90
5560;DHT22;2803;47.916;8.074;2023-03-14T01:31:04;11.70;99.90
5560;DHT22;2803;47.916;8.074;2023-03-14T01:33:31;11.70;99.90
5560;DHT22;2803;47.916;8.074;2023-03-14T01:35:58;11.70;99.90
5560;DHT22;2803;47.916;8.074;2023-03-14T01:38:24;11.70;99.90
5560;DHT22;2803;47.916;8.074;2023-03-14T01:40:51;11.10;99.90
5560;DHT22;2803;47.916;8.074;2023-03-14T01:43:19;11.30;99.90
5560;DHT22;2803;47.916;8.074;2023-03-14T01:48:48;11.90;99.90
5560;DHT22;2803;47.916;8.074;2023-03-14T01:51:19;11.80;99.90
5560;DHT22;2803;47.916;8.074;2023-03-14T01:53:49;12.00;99.90
5560;DHT22;2803;47.916;8.074;2023-03-14T01:56:17;12.10;99.90
5560;DHT22;2803;47.916;8.074;2023-03-14T01:58:47;11.80;99.90
5560;DHT22;2803;47.916;8.074;2023-03-14T02:01:16;11.60;99.90
5560;DHT22;2803;47.916;8.074;2023-03-14T02:03:48;11.70;99.90
5560;DHT22;2803;47.916;8.074;2023-03-14T02:06:18;11.50;99.90
5560;DHT22;2803;47.916;8.074;2023-03-14T02:08:45;11.60;99.90
5560;DHT22;2803;47.916;8.074;2023-03-14T02:11:13;11.00;99.90
5560;DHT22;2803;47.916;8.074;2023-03-14T02:13:40;11.00;99.90
5560;DHT22;2803;47.916;8.074;2023-03-14T02:16:07;11.30;99.90
5560;DHT22;2803;47.916;8.074;2023-03-14T02:18:34;11.60;99.90
5560;DHT22;2803;47.916;8.074;2023-03-14T02:21:05;11.90;99.90
5560;DHT22;2803;47.916;8.074;2023-03-14T02:23:39;11.80;99.90
5560;DHT22;2803;47.916;8.074;2023-03-14T02:26:10;11.80;99.90
5560;DHT22;2803;47.916;8.074;2023-03-14T02:28:39;11.80;99.90
5560;DHT22;2803;47.916;8.074;2023-03-14T02:31:06;11.40;99.90
5560;DHT22;2803;47.916;8.074;2023-03-14T02:33:35;11.20;99.90
5560;DHT22;2803;47.916;8.074;2023-03-14T02:36:06;11.10;99.90
5560;DHT22;2803;47.916;8.074;2023-03-14T02:38:37;11.10;99.90
5560;DHT22;2803;47.916;8.074;2023-03-14T02:41:05;11.20;99.90
5560;DHT22;2803;47.916;8.074;2023-03-14T02:43:32;10.80;99.90
5560;DHT22;2803;47.916;8.074;2023-03-14T02:46:00;10.90;99.90
5560;DHT22;2803;47.916;8.074;2023-03-14T02:48:31;11.00;99.90
5560;DHT22;2803;47.916;8.074;2023-03-14T02:51:00;10.90;99.90
5560;DHT22;2803;47.916;8.074;2023-03-14T02:53:29;11.10;99.90
5560;DHT22;2803;47.916;8.074;2023-03-14T02:55:57;11.10;99.90
5560;DHT22;2803;47.916;8.074;2023-03-14T02:58:24;11.20;99.90
5560;DHT22;2803;47.916;8.074;2023-03-14T03:00:51;11.10;99.90
5560;DHT22;2803;47.916;8.074;2023-03-14T03:03:19;10.80;99.90
5560;DHT22;2803;47.916;8.074;2023-03-14T03:05:48;10.50;99.90
5560;DHT22;2803;47.916;8.074;2023-03-14T03:08:15;10.80;99.90
5560;DHT22;2803;47.916;8.074;2023-03-14T03:10:42;10.70;99.90
5560;DHT22;2803;47.916;8.074;2023-03-14T03:13:08;10.40;99.90
5560;DHT22;2803;47.916;8.074;2023-03-14T03:15:35;10.30;99.90
5560;DHT22;2803;47.916;8.074;2023-03-14T03:18:02;10.70;99.90
5560;DHT22;2803;47.916;8.074;2023-03-14T03:20:30;10.30;99.90
5560;DHT22;2803;47.916;8.074;2023-03-14T03:22:58;10.80;99.90
5560;DHT22;2803;47.916;8.074;2023-03-14T03:25:25;11.10;99.90
5560;DHT22;2803;47.916;8.074;2023-03-14T03:27:51;11.00;99.90
5560;DHT22;2803;47.916;8.074;2023-03-14T03:30:19;10.70;99.90
5560;DHT22;2803;47.916;8.074;2023-03-14T03:32:46;11.00;99.90
5560;DHT22;2803;47.916;8.074;2023-03-14T03:35:12;11.20;99.90
5560;DHT22;2803;47.916;8.074;2023-03-14T03:37:40;10.70;99.90
5560;DHT22;2803;47.916;8.074;2023-03-14T03:40:08;10.40;99.90
5560;DHT22;2803;47.916;8.074;2023-03-14T03:42:35;10.70;99.90
5560;DHT22;2803;47.916;8.074;2023-03-14T03:45:03;10.20;99.90
5560;DHT22;2803;47.916;8.074;2023-03-14T03:47:30;10.60;99.90
5560;DHT22;2803;47.916;8.074;2023-03-14T03:49:57;10.90;99.90
5560;DHT22;2803;47.916;8.074;2023-03-14T03:52:24;10.50;99.90
5560;DHT22;2803;47.916;8.074;2023-03-14T03:54:52;10.80;99.90
5560;DHT22;2803;47.916;8.074;2023-03-14T03:57:19;10.40;99.90
5560;DHT22;2803;47.916;8.074;2023-03-14T03:59:45;10.20;99.90
5560;DHT22;2803;47.916;8.074;2023-03-14T04:02:12;10.60;99.90
5560;DHT22;2803;47.916;8.074;2023-03-14T04:04:39;10.60;99.90
5560;DHT22;2803;47.916;8.074;2023-03-14T04:07:05;10.70;99.90
5560;DHT22;2803;47.916;8.074;2023-03-14T04:09:32;11.00;99.90
5560;DHT22;2803;47.916;8.074;2023-03-14T04:12:00;10.70;99.90
5560;DHT22;2803;47.916;8.074;2023-03-14T04:14:26;10.40;99.90
5560;DHT22;2803;47.916;8.074;2023-03-14T04:16:53;10.10;99.90
5560;DHT22;2803;47.916;8.074;2023-03-14T04:19:20;10.40;99.90
5560;DHT22;2803;47.916;8.074;2023-03-14T04:21:47;10.00;99.90
5560;DHT22;2803;47.916;8.074;2023-03-14T04:24:14;10.80;99.90
5560;DHT22;2803;47.916;8.074;2023-03-14T04:26:40;10.90;99.90
5560;DHT22;2803;47.916;8.074;2023-03-14T04:29:08;10.60;99.90
5560;DHT22;2803;47.916;8.074;2023-03-14T04:31:35;10.60;99.90
5560;DHT22;2803;47.916;8.074;2023-03-14T04:34:01;11.00;99.90
5560;DHT22;2803;47.916;8.074;2023-03-14T04:36:28;10.70;99.90
5560;DHT22;2803;47.916;8.074;2023-03-14T04:38:55;10.40;99.90
5560;DHT22;2803;47.916;8.074;2023-03-14T04:41:21;10.60;99.90
5560;DHT22;2803;47.916;8.074;2023-03-14T04:43:48;10.60;99.90
5560;DHT22;2803;47.916;8.074;2023-03-14T04:46:16;10.90;99.90
5560;DHT22;2803;47.916;8.074;2023-03-14T04:48:42;10.80;99.90
5560;DHT22;2803;47.916;8.074;2023-03-14T04:51:09;10.50;99.90
5560;DHT22;2803;47.916;8.074;2023-03-14T04:53:35;11.00;99.90
5560;DHT22;2803;47.916;8.074;2023-03-14T04:56:02;11.30;99.90
5560;DHT22;2803;47.916;8.074;2023-03-14T04:58:29;11.40;99.90
5560;DHT22;2803;47.916;8.074;2023-03-14T05:00:56;11.30;99.90
5560;DHT22;2803;47.916;8.074;2023-03-14T05:03:28;11.10;99.90
5560;DHT22;2803;47.916;8.074;2023-03-14T05:05:55;11.30;99.90
5560;DHT22;2803;47.916;8.074;2023-03-14T05:08:22;11.10;99.90
5560;DHT22;2803;47.916;8.074;2023-03-14T05:10:52;10.60;99.90
5560;DHT22;2803;47.916;8.074;2023-03-14T05:13:18;10.30;99.90
5560;DHT22;2803;47.916;8.074;2023-03-14T05:15:45;10.00;99.90
5560;DHT22;2803;47.916;8.074;2023-03-14T05:18:12;10.50;99.90
5560;DHT22;2803;47.916;8.074;2023-03-14T05:20:40;10.90;99.90
5560;DHT22;2803;47.916;8.074;2023-03-14T05:23:08;11.40;99.90
5560;DHT22;2803;47.916;8.074;2023-03-14T05:25:35;11.10;99.90
5560;DHT22;2803;47.916;8.074;2023-03-14T05:28:01;11.40;99.90
5560;DHT22;2803;47.916;8.074;2023-03-14T05:30:28;11.00;99.90
5560;DHT22;2803;47.916;8.074;2023-03-14T05:32:56;10.90;99.90
5560;DHT22;2803;47.916;8.074;2023-03-14T05:35:23;11.00;99.90
5560;DHT22;2803;47.916;8.074;2023-03-14T05:37:50;10.70;99.90
5560;DHT22;2803;47.916;8.074;2023-03-14T05:40:17;10.50;99.90
5560;DHT22;2803;47.916;8.074;2023-03-14T05:42:44;10.60;99.90
5560;DHT22;2803;47.916;8.074;2023-03-14T05:45:11;10.60;99.90
5560;DHT22;2803;47.916;8.074;2023-03-14T05:47:37;10.80;99.90
5560;DHT22;2803;47.916;8.074;2023-03-14T05:50:04;11.20;99.90
5560;DHT22;2803;47.916;8.074;2023-03-14T05:52:31;11.40;99.90
5560;DHT22;2803;47.916;8.074;2023-03-14T05:54:59;11.10;99.90
5560;DHT22;2803;47.916;8.074;2023-03-14T05:57:25;11.40;99.90
5560;DHT22;2803;47.916;8.074;2023-03-14T05:59:52;11.30;99.90
5560;DHT22;2803;47.916;8.074;2023-03-14T06:02:19;11.00;99.90
5560;DHT22;2803;47.916;8.074;2023-03-14T06:04:45;11.30;99.90
5560;DHT22;2803;47.916;8.074;2023-03-14T06:07:12;11.60;99.90
5560;DHT22;2803;47.916;8.074;2023-03-14T06:09:38;11.20;99.90
5560;DHT22;2803;47.916;8.074;2023-03-14T06:12:07;10.90;99.90
5560;DHT22;2803;47.916;8.074;2023-03-14T06:14:33;11.20;99.90
5560;DHT22;2803;47.916;8.074;2023-03-14T06:17:00;11.10;99.90
5560;DHT22;2803;47.916;8.074;2023-03-14T06:19:26;11.20;99.90
5560;DHT22;2803;47.916;8.074;2023-03-14T06:21:53;11.40;99.90
5560;DHT22;2803;47.916;8.074;2023-03-14T06:24:19;11.10;99.90
5560;DHT22;2803;47.916;8.074;2023-03-14T06:26:46;11.30;99.90
5560;DHT22;2803;47.916;8.074;2023-03-14T06:29:14;11.50;99.90
5560;DHT22;2803;47.916;8.074;2023-03-14T06:31:40;11.10;99.90
5560;DHT22;2803;47.916;8.074;2023-03-14T06:34:07;10.20;99.90
5560;DHT22;2803;47.916;8.074;2023-03-14T06:36:34;10.10;99.90
5560;DHT22;2803;47.916;8.074;2023-03-14T06:39:00;10.40;99.90
5560;DHT22;2803;47.916;8.074;2023-03-14T06:41:27;10.60;99.90
5560;DHT22;2803;47.916;8.074;2023-03-14T06:43:53;10.90;99.90
5560;DHT22;2803;47.916;8.074;2023-03-14T06:46:21;10.70;99.90
5560;DHT22;2803;47.916;8.074;2023-03-14T06:48:48;10.70;99.90
5560;DHT22;2803;47.916;8.074;2023-03-14T06:51:15;11.40;99.90
5560;DHT22;2803;47.916;8.074;2023-03-14T06:53:41;11.40;99.90
5560;DHT22;2803;47.916;8.074;2023-03-14T06:56:08;11.60;99.90
5560;DHT22;2803;47.916;8.074;2023-03-14T06:58:36;11.80;99.90
5560;DHT22;2803;47.916;8.074;2023-03-14T07:01:02;12.10;99.90
5560;DHT22;2803;47.916;8.074;2023-03-14T07:03:30;12.40;99.90
5560;DHT22;2803;47.916;8.074;2023-03-14T07:05:57;12.30;99.90
5560;DHT22;2803;47.916;8.074;2023-03-14T07:08:24;11.20;99.90
5560;DHT22;2803;47.916;8.074;2023-03-14T07:10:51;10.90;99.90
5560;DHT22;2803;47.916;8.074;2023-03-14T07:13:17;11.30;99.90
5560;DHT22;2803;47.916;8.074;2023-03-14T07:15:45;11.70;99.90
5560;DHT22;2803;47.916;8.074;2023-03-14T07:18:11;12.10;99.90
5560;DHT22;2803;47.916;8.074;2023-03-14T07:20:39;12.30;99.90
5560;DHT22;2803;47.916;8.074;2023-03-14T07:23:06;11.90;99.90
5560;DHT22;2803;47.916;8.074;2023-03-14T07:25:32;11.80;99.90
5560;DHT22;2803;47.916;8.074;2023-03-14T07:27:59;12.00;99.90
5560;DHT22;2803;47.916;8.074;2023-03-14T07:30:25;11.30;99.90
5560;DHT22;2803;47.916;8.074;2023-03-14T07:32:52;11.10;99.90
5560;DHT22;2803;47.916;8.074;2023-03-14T07:35:19;11.50;99.90
5560;DHT22;2803;47.916;8.074;2023-03-14T07:37:46;11.70;99.90
5560;DHT22;2803;47.916;8.074;2023-03-14T07:40:13;11.60;99.90
5560;DHT22;2803;47.916;8.074;2023-03-14T07:42:41;10.90;99.90
5560;DHT22;2803;47.916;8.074;2023-03-14T07:45:09;11.30;99.90
5560;DHT22;2803;47.916;8.074;2023-03-14T07:47:36;11.60;99.90
5560;DHT22;2803;47.916;8.074;2023-03-14T07:50:03;11.90;99.90
5560;DHT22;2803;47.916;8.074;2023-03-14T07:52:29;12.40;99.90
5560;DHT22;2803;47.916;8.074;2023-03-14T07:54:57;12.90;99.90
5560;DHT22;2803;47.916;8.074;2023-03-14T07:57:24;12.60;99.90
5560;DHT22;2803;47.916;8.074;2023-03-14T07:59:51;12.10;99.90
5560;DHT22;2803;47.916;8.074;2023-03-14T08:02:17;12.00;99.90
5560;DHT22;2803;47.916;8.074;2023-03-14T08:04:47;12.40;99.90
5560;DHT22;2803;47.916;8.074;2023-03-14T08:07:14;11.70;99.90
5560;DHT22;2803;47.916;8.074;2023-03-14T08:09:40;11.80;99.90
5560;DHT22;2803;47.916;8.074;2023-03-14T08:12:08;12.10;99.90
5560;DHT22;2803;47.916;8.074;2023-03-14T08:14:35;11.80;99.90
5560;DHT22;2803;47.916;8.074;2023-03-14T08:17:01;11.90;99.90
5560;DHT22;2803;47.916;8.074;2023-03-14T08:19:28;11.70;99.90
5560;DHT22;2803;47.916;8.074;2023-03-14T08:21:55;11.60;99.90
5560;DHT22;2803;47.916;8.074;2023-03-14T08:24:21;12.00;99.90
5560;DHT22;2803;47.916;8.074;2023-03-14T08:26:48;12.10;99.90
5560;DHT22;2803;47.916;8.074;2023-03-14T08:29:16;12.20;99.90
5560;DHT22;2803;47.916;8.074;2023-03-14T08:31:42;11.90;99.90
5560;DHT22;2803;47.916;8.074;2023-03-14T08:34:09;12.10;99.90
5560;DHT22;2803;47.916;8.074;2023-03-14T08:36:36;12.10;99.90
5560;DHT22;2803;47.916;8.074;2023-03-14T08:39:02;12.20;99.90
5560;DHT22;2803;47.916;8.074;2023-03-14T08:41:32;12.30;99.90
5560;DHT22;2803;47.916;8.074;2023-03-14T08:43:59;12.80;99.90
5560;DHT22;2803;47.916;8.074;2023-03-14T08:46:27;12.40;99.90
5560;DHT22;2803;47.916;8.074;2023-03-14T08:48:53;12.90;99.90
5560;DHT22;2803;47.916;8.074;2023-03-14T08:51:20;13.00;99.90
5560;DHT22;2803;47.916;8.074;2023-03-14T08:53:46;12.60;99.90
5560;DHT22;2803;47.916;8.074;2023-03-14T08:56:13;12.70;99.90
5560;DHT22;2803;47.916;8.074;2023-03-14T08:58:39;12.20;99.90
5560;DHT22;2803;47.916;8.074;2023-03-14T09:01:08;12.40;99.90
5560;DHT22;2803;47.916;8.074;2023-03-14T09:03:36;12.50;99.90
5560;DHT22;2803;47.916;8.074;2023-03-14T09:06:04;12.70;99.90
5560;DHT22;2803;47.916;8.074;2023-03-14T09:08:31;12.80;99.90
5560;DHT22;2803;47.916;8.074;2023-03-14T09:10:57;12.30;99.90
5560;DHT22;2803;47.916;8.074;2023-03-14T09:13:24;12.30;99.90
5560;DHT22;2803;47.916;8.074;2023-03-14T09:15:51;12.40;99.90
5560;DHT22;2803;47.916;8.074;2023-03-14T09:18:17;12.10;99.90
5560;DHT22;2803;47.916;8.074;2023-03-14T09:20:45;12.20;99.90
5560;DHT22;2803;47.916;8.074;2023-03-14T09:23:12;12.50;99.90
5560;DHT22;2803;47.916;8.074;2023-03-14T09:25:39;12.10;99.90
5560;DHT22;2803;47.916;8.074;2023-03-14T09:28:05;12.10;99.90
5560;DHT22;2803;47.916;8.074;2023-03-14T09:30:32;12.30;99.90
5560;DHT22;2803;47.916;8.074;2023-03-14T09:32:59;12.90;99.90
5560;DHT22;2803;47.916;8.074;2023-03-14T09:35:26;12.60;99.90
5560;DHT22;2803;47.916;8.074;2023-03-14T09:37:54;12.90;99.90
5560;DHT22;2803;47.916;8.074;2023-03-14T09:40:21;13.00;99.90
5560;DHT22;2803;47.916;8.074;2023-03-14T09:42:50;12.70;99.90
5560;DHT22;2803;47.916;8.074;2023-03-14T09:45:25;12.90;99.90
5560;DHT22;2803;47.916;8.074;2023-03-14T09:47:52;13.30;99.90
5560;DHT22;2803;47.916;8.074;2023-03-14T09:50:20;13.00;99.90
5560;DHT22;2803;47.916;8.074;2023-03-14T09:52:49;12.30;99.90
5560;DHT22;2803;47.916;8.074;2023-03-14T09:55:19;12.30;99.90
5560;DHT22;2803;47.916;8.074;2023-03-14T09:57:48;11.80;99.90
5560;DHT22;2803;47.916;8.074;2023-03-14T10:00:18;11.70;99.90
5560;DHT22;2803;47.916;8.074;2023-03-14T10:02:50;11.70;99.90
5560;DHT22;2803;47.916;8.074;2023-03-14T10:05:19;11.80;99.90
5560;DHT22;2803;47.916;8.074;2023-03-14T10:07:46;11.90;99.90
5560;DHT22;2803;47.916;8.074;2023-03-14T10:10:16;12.00;99.90
5560;DHT22;2803;47.916;8.074;2023-03-14T10:12:47;12.10;99.90
5560;DHT22;2803;47.916;8.074;2023-03-14T10:15:15;12.20;99.90
5560;DHT22;2803;47.916;8.074;2023-03-14T10:17:50;11.80;99.90
5560;DHT22;2803;47.916;8.074;2023-03-14T10:20:28;11.80;99.90
5560;DHT22;2803;47.916;8.074;2023-03-14T10:22:58;11.40;99.90
5560;DHT22;2803;47.916;8.074;2023-03-14T10:25:27;11.20;99.90
5560;DHT22;2803;47.916;8.074;2023-03-14T10:27:56;10.80;99.90
5560;DHT22;2803;47.916;8.074;2023-03-14T10:30:39;11.30;99.90
5560;DHT22;2803;47.916;8.074;2023-03-14T10:33:10;11.60;99.90
5560;DHT22;2803;47.916;8.074;2023-03-14T10:35:37;11.80;99.90
5560;DHT22;2803;47.916;8.074;2023-03-14T10:38:04;12.00;99.90
5560;DHT22;2803;47.916;8.074;2023-03-14T10:40:32;12.10;99.90
5560;DHT22;2803;47.916;8.074;2023-03-14T10:43:04;12.30;99.90
5560;DHT22;2803;47.916;8.074;2023-03-14T10:45:34;12.50;99.90
5560;DHT22;2803;47.916;8.074;2023-03-14T10:48:19;12.10;99.90
5560;DHT22;2803;47.916;8.074;2023-03-14T10:50:55;11.50;99.90
5560;DHT22;2803;47.916;8.074;2023-03-14T10:53:23;10.90;99.90
5560;DHT22;2803;47.916;8.074;2023-03-14T10:55:50;10.90;99.90
5560;DHT22;2803;47.916;8.074;2023-03-14T10:58:20;10.90;99.90
5560;DHT22;2803;47.916;8.074;2023-03-14T11:00:51;11.00;99.90
5560;DHT22;2803;47.916;8.074;2023-03-14T11:03:20;10.60;99.90
5560;DHT22;2803;47.916;8.074;2023-03-14T11:05:51;10.40;99.90
5560;DHT22;2803;47.916;8.074;2023-03-14T11:08:24;10.80;99.90
5560;DHT22;2803;47.916;8.074;2023-03-14T11:10:54;11.30;99.90
5560;DHT22;2803;47.916;8.074;2023-03-14T11:13:26;11.50;99.90
5560;DHT22;2803;47.916;8.074;2023-03-14T11:15:58;10.80;99.90
5560;DHT22;2803;47.916;8.074;2023-03-14T11:18:46;10.90;99.90
5560;DHT22;2803;47.916;8.074;2023-03-14T11:21:19;10.60;99.90
5560;DHT22;2803;47.916;8.074;2023-03-14T11:23:55;10.60;99.90
5560;DHT22;2803;47.916;8.074;2023-03-14T11:26:32;10.70;99.90
5560;DHT22;2803;47.916;8.074;2023-03-14T11:29:10;11.30;99.90
5560;DHT22;2803;47.916;8.074;2023-03-14T11:31:40;10.20;99.90
5560;DHT22;2803;47.916;8.074;2023-03-14T11:34:15;10.00;99.90
5560;DHT22;2803;47.916;8.074;2023-03-14T11:36:48;9.70;99.90
5560;DHT22;2803;47.916;8.074;2023-03-14T11:39:18;9.80;99.90
5560;DHT22;2803;47.916;8.074;2023-03-14T11:41:47;9.90;99.90
5560;DHT22;2803;47.916;8.074;2023-03-14T11:44:18;9.40;99.90
5560;DHT22;2803;47.916;8.074;2023-03-14T11:46:50;9.30;99.90
5560;DHT22;2803;47.916;8.074;2023-03-14T11:49:27;9.30;99.90
5560;DHT22;2803;47.916;8.074;2023-03-14T11:51:58;9.70;99.90
5560;DHT22;2803;47.916;8.074;2023-03-14T11:54:33;9.60;99.90
5560;DHT22;2803;47.916;8.074;2023-03-14T11:57:03;9.20;99.90
5560;DHT22;2803;47.916;8.074;2023-03-14T11:59:41;7.80;99.90
5560;DHT22;2803;47.916;8.074;2023-03-14T12:02:13;6.20;99.90
5560;DHT22;2803;47.916;8.074;2023-03-14T12:04:53;5.50;99.90
5560;DHT22;2803;47.916;8.074;2023-03-14T12:07:21;5.40;99.90
5560;DHT22;2803;47.916;8.074;2023-03-14T12:09:51;5.20;99.90
5560;DHT22;2803;47.916;8.074;2023-03-14T12:12:20;5.20;99.90
5560;DHT22;2803;47.916;8.074;2023-03-14T12:14:54;5.50;99.90
5560;DHT22;2803;47.916;8.074;2023-03-14T12:17:23;5.50;99.90
5560;DHT22;2803;47.916;8.074;2023-03-14T12:20:02;5.40;99.90
5560;DHT22;2803;47.916;8.074;2023-03-14T12:22:34;5.60;99.90
5560;DHT22;2803;47.916;8.074;2023-03-14T12:25:05;5.40;99.90
5560;DHT22;2803;47.916;8.074;2023-03-14T12:27:48;5.30;99.90
5560;DHT22;2803;47.916;8.074;2023-03-14T12:30:24;5.20;99.90
5560;DHT22;2803;47.916;8.074;2023-03-14T12:33:10;5.10;99.90
5560;DHT22;2803;47.916;8.074;2023-03-14T12:35:40;5.10;99.90
5560;DHT22;2803;47.916;8.074;2023-03-14T12:38:11;5.20;99.90
5560;DHT22;2803;47.916;8.074;2023-03-14T12:40:45;5.60;99.90
5560;DHT22;2803;47.916;8.074;2023-03-14T12:43:25;5.60;99.90
5560;DHT22;2803;47.916;8.074;2023-03-14T12:46:09;5.70;99.90
5560;DHT22;2803;47.916;8.074;2023-03-14T12:48:40;5.90;99.90
5560;DHT22;2803;47.916;8.074;2023-03-14T12:51:13;6.10;99.90
5560;DHT22;2803;47.916;8.074;2023-03-14T12:54:00;5.90;99.90
5560;DHT22;2803;47.916;8.074;2023-03-14T12:56:43;5.80;99.90
5560;DHT22;2803;47.916;8.074;2023-03-14T12:59:34;5.90;99.90
5560;DHT22;2803;47.916;8.074;2023-03-14T13:02:17;6.20;99.90
5560;DHT22;2803;47.916;8.074;2023-03-14T13:04:48;6.20;99.90
5560;DHT22;2803;47.916;8.074;2023-03-14T13:07:33;6.40;99.90
5560;DHT22;2803;47.916;8.074;2023-03-14T13:10:05;6.40;99.90
5560;DHT22;2803;47.916;8.074;2023-03-14T13:12:45;6.70;99.90
5560;DHT22;2803;47.916;8.074;2023-03-14T13:15:18;7.10;99.90
5560;DHT22;2803;47.916;8.074;2023-03-14T13:17:48;7.00;99.90
5560;DHT22;2803;47.916;8.074;2023-03-14T13:20:20;7.20;99.90
5560;DHT22;2803;47.916;8.074;2023-03-14T13:22:49;7.00;99.90
5560;DHT22;2803;47.916;8.074;2023-03-14T13:25:16;7.30;99.90
5560;DHT22;2803;47.916;8.074;2023-03-14T13:27:44;6.90;99.90
5560;DHT22;2803;47.916;8.074;2023-03-14T13:30:22;7.00;99.90
5560;DHT22;2803;47.916;8.074;2023-03-14T13:32:52;6.90;99.90
5560;DHT22;2803;47.916;8.074;2023-03-14T13:35:22;6.80;99.90
5560;DHT22;2803;47.916;8.074;2023-03-14T13:37:53;7.10;99.90
5560;DHT22;2803;47.916;8.074;2023-03-14T13:40:25;6.70;99.90
5560;DHT22;2803;47.916;8.074;2023-03-14T13:43:02;6.60;99.90
5560;DHT22;2803;47.916;8.074;2023-03-14T13:45:29;6.80;99.90
5560;DHT22;2803;47.916;8.074;2023-03-14T13:47:57;6.80;99.90
5560;DHT22;2803;47.916;8.074;2023-03-14T13:50:23;7.10;99.90
5560;DHT22;2803;47.916;8.074;2023-03-14T13:52:55;7.30;99.90
5560;DHT22;2803;47.916;8.074;2023-03-14T13:55:22;7.20;99.90
5560;DHT22;2803;47.916;8.074;2023-03-14T13:57:50;6.90;99.90
5560;DHT22;2803;47.916;8.074;2023-03-14T14:00:21;7.00;99.90
5560;DHT22;2803;47.916;8.074;2023-03-14T14:02:52;6.90;99.90
5560;DHT22;2803;47.916;8.074;2023-03-14T14:05:21;7.00;99.90
5560;DHT22;2803;47.916;8.074;2023-03-14T14:07:49;6.70;99.90
5560;DHT22;2803;47.916;8.074;2023-03-14T14:10:16;6.80;99.90
5560;DHT22;2803;47.916;8.074;2023-03-14T14:12:46;7.00;99.90
5560;DHT22;2803;47.916;8.074;2023-03-14T14:15:19;7.10;99.90
5560;DHT22;2803;47.916;8.074;2023-03-14T14:17:49;7.20;99.90
5560;DHT22;2803;47.916;8.074;2023-03-14T14:20:22;6.70;99.90
5560;DHT22;2803;47.916;8.074;2023-03-14T14:22:50;6.70;99.90
5560;DHT22;2803;47.916;8.074;2023-03-14T14:25:17;7.00;99.90
5560;DHT22;2803;47.916;8.074;2023-03-14T14:27:48;7.10;99.90
5560;DHT22;2803;47.916;8.074;2023-03-14T14:30:29;7.10;99.90
5560;DHT22;2803;47.916;8.074;2023-03-14T14:33:15;7.20;99.90
5560;DHT22;2803;47.916;8.074;2023-03-14T14:35:50;7.40;99.90
5560;DHT22;2803;47.916;8.074;2023-03-14T14:38:18;7.90;99.90
5560;DHT22;2803;47.916;8.074;2023-03-14T14:40:49;8.10;99.90
5560;DHT22;2803;47.916;8.074;2023-03-14T14:43:18;7.90;99.90
5560;DHT22;2803;47.916;8.074;2023-03-14T14:45:48;7.50;99.90
5560;DHT22;2803;47.916;8.074;2023-03-14T14:48:22;7.60;99.90
5560;DHT22;2803;47.916;8.074;2023-03-14T14:50:55;7.40;99.90
5560;DHT22;2803;47.916;8.074;2023-03-14T14:53:26;7.50;99.90
5560;DHT22;2803;47.916;8.074;2023-03-14T14:55:54;7.30;99.90
5560;DHT22;2803;47.916;8.074;2023-03-14T14:58:24;7.60;99.90
5560;DHT22;2803;47.916;8.074;2023-03-14T15:00:55;7.20;99.90
5560;DHT22;2803;47.916;8.074;2023-03-14T15:03:22;7.20;99.90
5560;DHT22;2803;47.916;8.074;2023-03-14T15:05:53;7.70;99.90
5560;DHT22;2803;47.916;8.074;2023-03-14T15:08:20;7.50;99.90
5560;DHT22;2803;47.916;8.074;2023-03-14T15:10:47;7.90;99.90
5560;DHT22;2803;47.916;8.074;2023-03-14T15:13:14;8.00;99.90
5560;DHT22;2803;47.916;8.074;2023-03-14T15:15:41;7.90;99.90
5560;DHT22;2803;47.916;8.074;2023-03-14T15:18:12;8.00;99.90
5560;DHT22;2803;47.916;8.074;2023-03-14T15:20:39;7.90;99.90
5560;DHT22;2803;47.916;8.074;2023-03-14T15:23:11;7.70;99.90
5560;DHT22;2803;47.916;8.074;2023-03-14T15:25:38;7.50;99.90
5560;DHT22;2803;47.916;8.074;2023-03-14T15:28:13;7.40;99.90
5560;DHT22;2803;47.916;8.074;2023-03-14T15:30:39;7.50;99.90
5560;DHT22;2803;47.916;8.074;2023-03-14T15:33:06;7.90;99.90
5560;DHT22;2803;47.916;8.074;2023-03-14T15:35:34;7.80;99.90
5560;DHT22;2803;47.916;8.074;2023-03-14T15:38:01;7.40;99.90
5560;DHT22;2803;47.916;8.074;2023-03-14T15:40:30;7.40;99.90
5560;DHT22;2803;47.916;8.074;2023-03-14T15:42:56;7.70;99.90
5560;DHT22;2803;47.916;8.074;2023-03-14T15:45:23;7.60;99.90
5560;DHT22;2803;47.916;8.074;2023-03-14T15:47:49;7.50;99.90
5560;DHT22;2803;47.916;8.074;2023-03-14T15:50:16;7.40;99.90
5560;DHT22;2803;47.916;8.074;2023-03-14T15:52:44;7.60;99.90
5560;DHT22;2803;47.916;8.074;2023-03-14T15:55:11;7.80;99.90
5560;DHT22;2803;47.916;8.074;2023-03-14T15:57:41;7.70;99.90
5560;DHT22;2803;47.916;8.074;2023-03-14T16:00:10;7.90;99.90
5560;DHT22;2803;47.916;8.074;2023-03-14T16:02:39;7.90;99.90
5560;DHT22;2803;47.916;8.074;2023-03-14T16:05:07;7.80;99.90
5560;DHT22;2803;47.916;8.074;2023-03-14T16:07:34;8.00;99.90
5560;DHT22;2803;47.916;8.074;2023-03-14T16:10:00;8.30;99.90
5560;DHT22;2803;47.916;8.074;2023-03-14T16:12:27;8.20;99.90
5560;DHT22;2803;47.916;8.074;2023-03-14T16:14:55;7.90;99.90
5560;DHT22;2803;47.916;8.074;2023-03-14T16:17:21;7.80;99.90
5560;DHT22;2803;47.916;8.074;2023-03-14T16:19:48;7.90;99.90